Time;durP1;ratioP1;P1;durP2;ratioP2;P2;SDS_P1;SDS_P2;PMS_P1;PMS_P2;Temp;Humidity;BMP_temperature;BMP_pressure;BME280_temperature;BME280_humidity;BME280_pressure;Samples;Min_cycle;Max_cycle;Signal;HPM_P1;HPM_P2
2023/01/19 00:01:04;;;;;;;72.22;17.02;;;1.00;99.90;;;;;;5994088;23;20199;-83
2023/01/19 00:08:13;;;;;;;73.47;16.67;;;1.00;99.90;;;;;;6022460;23;20206;-83
2023/01/19 00:11:11;;;;;;;74.07;22.08;;;0.90;99.90;;;;;;6051291;23;20186;-83
2023/01/19 00:17:42;;;;;;;;;;;;;;;;;;;;;
2023/01/19 00:21:03;;;;;;;78.85;23.83;;;0.90;99.90;;;;;;6050119;23;20192;-83
2023/01/19 00:27:37;;;;;;;;;;;;;;;;;;;;;
2023/01/19 00:30:49;;;;;;;75.55;22.63;;;1.10;99.90;;;;;;5909094;24;20597;-83
2023/01/19 00:33:51;;;;;;;76.03;23.92;;;1.10;99.90;;;;;;5882866;24;20213;-83
2023/01/19 00:43:59;;;;;;;74.50;23.00;;;1.20;99.90;;;;;;5883376;24;20172;-83
2023/01/19 00:47:24;;;;;;;;;;;;;;;;;;;;;
2023/01/19 00:50:43;;;;;;;;;;;;;;;;;;;;;
2023/01/19 00:53:32;;;;;;;;;;;;;;;;;;;;;
2023/01/19 01:01:21;;;;;;;;;;;;;;;;;;;;;
2023/01/19 01:11:51;;;;;;;;;;;;;;;;;;;;;
2023/01/19 01:15:04;;;;;;;72.80;16.95;;;1.60;99.90;;;;;;6082547;23;20174;-84
2023/01/19 01:29:38;;;;;;;71.72;22.63;;;1.60;99.90;;;;;;5826704;24;20246;-84
2023/01/19 01:40:49;;;;;;;;;;;;;;;;;;;;;
2023/01/19 01:44:00;;;;;;;69.18;13.63;;;1.50;99.90;;;;;;5827827;24;20177;-83
2023/01/19 01:46:49;;;;;;;69.50;12.98;;;1.40;99.90;;;;;;5860273;24;20165;-83
2023/01/19 01:57:53;;;;;;;72.53;21.23;;;1.60;99.90;;;;;;5912588;24;20169;-83
2023/01/19 02:14:05;;;;;;;;;;;;;;;;;;;;;
2023/01/19 02:17:37;;;;;;;;;;;;;;;;;;;;;
2023/01/19 02:38:22;;;;;;;;;;;;;;;;;;;;;
2023/01/19 02:45:05;;;;;;;;;;;;;;;;;;;;;
2023/01/19 02:48:57;;;;;;;;;;;;;;;;;;;;;
2023/01/19 02:59:09;;;;;;;;;;;;;;;;;;;;;
2023/01/19 03:02:43;;;;;;;;;;;;;;;;;;;;;
2023/01/19 03:05:45;;;;;;;71.40;18.75;;;1.40;99.90;;;;;;6019258;23;20157;-83
2023/01/19 03:08:39;;;;;;;71.88;15.40;;;1.50;99.90;;;;;;6101334;23;20206;-83
2023/01/19 03:18:41;;;;;;;74.97;20.50;;;1.40;99.90;;;;;;6129981;23;20165;-83
2023/01/19 03:21:45;;;;;;;;;;;;;;;;;;;;;
2023/01/19 03:24:42;;;;;;;73.80;20.65;;;1.40;99.90;;;;;;6254729;22;20178;-83
2023/01/19 03:31:14;;;;;;;73.32;20.40;;;1.40;99.90;;;;;;6109630;23;20226;-83
2023/01/19 03:34:55;;;;;;;;;;;;;;;;;;;;;
2023/01/19 03:38:01;;;;;;;72.72;20.67;;;1.40;99.90;;;;;;5998498;23;20194;-83
2023/01/19 03:41:07;;;;;;;74.85;23.67;;;1.30;99.90;;;;;;6062164;23;20564;-83
2023/01/19 03:44:37;;;;;;;73.25;22.83;;;1.40;99.90;;;;;;6008596;23;20153;-83
2023/01/19 03:47:44;;;;;;;74.95;21.58;;;1.40;99.90;;;;;;5994660;24;20523;-83
2023/01/19 03:50:46;;;;;;;73.90;18.83;;;1.40;99.90;;;;;;5994512;24;20198;-83
2023/01/19 03:54:24;;;;;;;72.25;18.23;;;1.50;99.90;;;;;;6138526;23;20220;-83
2023/01/19 03:57:19;;;;;;;72.57;21.15;;;1.50;99.90;;;;;;6106650;23;20147;-83
2023/01/19 04:07:59;;;;;;;71.47;19.25;;;1.60;99.90;;;;;;6012444;23;20242;-83
2023/01/19 04:19:36;;;;;;;76.22;22.35;;;1.80;99.90;;;;;;6139023;23;20193;-83
2023/01/19 04:22:30;;;;;;;;;;;;;;;;;;;;;
2023/01/19 04:25:30;;;;;;;;;;;;;;;;;;;;;
2023/01/19 04:32:05;;;;;;;73.18;23.05;;;1.90;99.90;;;;;;6023295;23;20221;-83
2023/01/19 04:34:59;;;;;;;;;;;;;;;;;;;;;
2023/01/19 04:44:44;;;;;;;73.53;21.88;;;1.90;99.90;;;;;;6092181;23;20158;-83
2023/01/19 04:47:35;;;;;;;77.78;24.35;;;2.00;99.90;;;;;;6086447;23;20246;-83
2023/01/19 04:50:07;;;;;;;74.72;20.58;;;2.00;99.90;;;;;;6083690;23;20214;-83
2023/01/19 04:53:45;;;;;;;;;;;;;;;;;;;;;
2023/01/19 04:56:39;;;;;;;72.32;14.43;;;2.10;99.90;;;;;;6259195;23;20167;-83
2023/01/19 05:07:03;;;;;;;74.38;14.05;;;2.20;99.90;;;;;;6135340;23;20150;-83
2023/01/19 05:16:16;;;;;;;75.13;16.25;;;2.30;99.90;;;;;;6194431;22;20254;-85
2023/01/19 05:18:44;;;;;;;71.30;14.00;;;2.30;99.90;;;;;;6194505;23;20140;-85
2023/01/19 05:21:13;;;;;;;72.63;10.48;;;2.30;99.90;;;;;;6220982;23;20171;-85
2023/01/19 05:23:44;;;;;;;69.63;9.93;;;2.40;99.90;;;;;;6194785;23;20498;-86
2023/01/19 05:26:09;;;;;;;71.80;11.02;;;2.40;99.90;;;;;;6220605;23;20140;-87
2023/01/19 05:28:36;;;;;;;72.13;9.70;;;2.40;99.90;;;;;;6195016;23;20149;-86
2023/01/19 05:31:01;;;;;;;71.20;8.75;;;2.40;99.90;;;;;;6220209;23;20188;-85
2023/01/19 05:33:27;;;;;;;69.70;10.37;;;2.40;99.90;;;;;;6222224;23;20151;-87
2023/01/19 05:35:56;;;;;;;69.00;9.90;;;2.40;99.90;;;;;;6222505;23;20165;-86
2023/01/19 05:38:22;;;;;;;70.22;9.52;;;2.50;99.90;;;;;;6195544;23;20160;-86
2023/01/19 05:40:48;;;;;;;70.43;9.05;;;2.40;99.90;;;;;;6222332;23;20656;-86
2023/01/19 05:43:14;;;;;;;68.97;10.17;;;2.40;99.90;;;;;;6222579;23;20137;-86
2023/01/19 05:45:40;;;;;;;68.47;8.75;;;2.40;99.90;;;;;;6222035;23;20426;-87
2023/01/19 05:48:07;;;;;;;70.60;9.20;;;2.40;99.90;;;;;;6222753;23;20137;-86
2023/01/19 05:50:34;;;;;;;70.60;10.50;;;2.40;99.90;;;;;;6221433;23;20415;-87
2023/01/19 05:53:00;;;;;;;73.28;11.80;;;2.50;99.90;;;;;;6196155;23;20148;-86
2023/01/19 05:55:27;;;;;;;74.07;12.48;;;2.40;99.90;;;;;;6194583;23;20152;-86
2023/01/19 05:57:53;;;;;;;71.35;14.10;;;2.40;99.90;;;;;;6219728;23;20137;-87
2023/01/19 06:00:19;;;;;;;71.47;13.90;;;2.40;99.90;;;;;;6219505;23;20210;-86
2023/01/19 06:02:47;;;;;;;76.17;16.70;;;2.50;99.90;;;;;;6220987;23;20219;-86
2023/01/19 06:05:12;;;;;;;74.13;16.58;;;2.50;99.90;;;;;;6194441;23;20391;-86
2023/01/19 06:07:38;;;;;;;80.60;22.87;;;2.50;99.90;;;;;;6222177;23;20218;-86
2023/01/19 06:10:04;;;;;;;79.07;25.33;;;2.40;99.90;;;;;;6193604;23;20186;-87
2023/01/19 06:12:31;;;;;;;79.95;31.00;;;2.30;99.90;;;;;;6193391;23;20149;-86
2023/01/19 06:14:57;;;;;;;86.05;38.42;;;2.20;99.90;;;;;;6193746;23;20164;-87
2023/01/19 06:17:22;;;;;;;77.90;24.60;;;2.20;99.90;;;;;;6220419;23;20147;-86
2023/01/19 06:19:48;;;;;;;77.27;20.43;;;2.00;99.90;;;;;;6194098;23;20149;-86
2023/01/19 06:22:14;;;;;;;78.00;20.30;;;2.00;99.90;;;;;;6220588;23;20371;-86
2023/01/19 06:24:42;;;;;;;74.70;16.07;;;1.90;99.90;;;;;;6220397;23;20144;-86
2023/01/19 06:27:10;;;;;;;77.45;16.00;;;1.80;99.90;;;;;;6221310;23;20140;-87
2023/01/19 06:29:35;;;;;;;74.38;13.02;;;1.80;99.90;;;;;;6194912;23;20157;-86
2023/01/19 06:32:01;;;;;;;73.87;13.73;;;1.80;99.90;;;;;;6221447;23;20165;-87
2023/01/19 06:34:27;;;;;;;72.20;12.00;;;1.80;99.90;;;;;;6221182;23;20201;-86
2023/01/19 06:36:56;;;;;;;74.25;12.43;;;1.70;99.90;;;;;;6194847;23;20148;-86
2023/01/19 06:39:23;;;;;;;74.38;15.57;;;1.70;99.90;;;;;;6222335;23;20473;-86
2023/01/19 06:41:48;;;;;;;75.95;17.30;;;1.70;99.90;;;;;;6222125;23;20231;-85
2023/01/19 06:44:14;;;;;;;72.60;16.37;;;1.70;99.90;;;;;;6222526;23;20137;-87
2023/01/19 06:46:40;;;;;;;73.63;15.17;;;1.60;99.90;;;;;;6222816;23;20125;-86
2023/01/19 06:49:06;;;;;;;74.00;15.07;;;1.70;99.90;;;;;;6195889;23;20144;-86
2023/01/19 06:51:32;;;;;;;72.15;16.63;;;1.70;99.90;;;;;;6195661;23;20549;-85
2023/01/19 06:53:57;;;;;;;73.60;15.30;;;1.70;99.90;;;;;;6196120;23;20173;-85
2023/01/19 06:56:23;;;;;;;75.47;18.37;;;1.70;99.90;;;;;;6222516;23;20375;-85
2023/01/19 06:58:49;;;;;;;77.40;18.00;;;1.70;99.90;;;;;;6222588;23;20145;-85
2023/01/19 07:01:15;;;;;;;74.03;16.90;;;1.70;99.90;;;;;;6195977;23;20402;-86
2023/01/19 07:03:40;;;;;;;74.40;18.70;;;1.70;99.90;;;;;;6196976;23;20162;-85
2023/01/19 07:06:06;;;;;;;74.33;17.90;;;1.70;99.90;;;;;;6222947;23;20470;-85
2023/01/19 07:08:36;;;;;;;74.87;16.20;;;1.70;99.90;;;;;;6223879;23;20140;-85
2023/01/19 07:11:05;;;;;;;78.57;21.92;;;1.70;99.90;;;;;;6223575;23;20239;-85
2023/01/19 07:13:32;;;;;;;77.22;20.75;;;1.70;99.90;;;;;;6223164;23;20196;-85
2023/01/19 07:15:58;;;;;;;96.15;51.50;;;1.70;99.90;;;;;;6223303;23;20163;-85
2023/01/19 07:18:23;;;;;;;78.28;20.90;;;1.60;99.90;;;;;;6223559;23;20516;-85
2023/01/19 07:20:49;;;;;;;76.80;22.93;;;1.70;99.90;;;;;;6222451;23;20188;-85
2023/01/19 07:23:15;;;;;;;78.00;22.43;;;1.70;99.90;;;;;;6223427;23;20175;-85
2023/01/19 07:25:45;;;;;;;77.00;23.70;;;1.70;99.90;;;;;;6222802;23;20223;-85
2023/01/19 07:28:14;;;;;;;78.55;24.38;;;1.70;99.90;;;;;;6222777;23;20168;-85
2023/01/19 07:30:41;;;;;;;79.20;26.75;;;1.70;99.90;;;;;;6195613;23;20176;-85
2023/01/19 07:33:07;;;;;;;79.65;23.73;;;1.70;99.90;;;;;;6195539;23;20621;-85
2023/01/19 07:35:33;;;;;;;80.60;27.37;;;1.70;99.90;;;;;;6222325;23;20137;-85
2023/01/19 07:37:58;;;;;;;82.43;23.37;;;1.70;99.90;;;;;;6222415;23;20406;-85
2023/01/19 07:40:24;;;;;;;86.40;24.50;;;1.70;99.90;;;;;;6223666;23;20164;-84
2023/01/19 07:42:50;;;;;;;80.33;27.23;;;1.70;99.90;;;;;;6222404;23;20190;-85
2023/01/19 07:45:19;;;;;;;81.78;25.92;;;1.70;99.90;;;;;;6222224;23;20144;-85
2023/01/19 07:47:47;;;;;;;77.95;24.05;;;1.70;99.90;;;;;;6205065;23;20199;-83
2023/01/19 07:50:14;;;;;;;81.57;25.73;;;1.80;99.90;;;;;;6242562;22;20199;-82
2023/01/19 07:52:40;;;;;;;78.43;24.85;;;1.80;99.90;;;;;;6219626;22;20203;-83
2023/01/19 07:55:07;;;;;;;81.27;26.60;;;1.80;99.90;;;;;;6220915;23;20141;-83
2023/01/19 07:57:33;;;;;;;88.35;26.88;;;1.80;99.90;;;;;;6194570;23;20372;-84
2023/01/19 07:59:59;;;;;;;79.13;24.52;;;1.70;99.90;;;;;;6194138;23;20152;-83
2023/01/19 08:02:25;;;;;;;82.30;24.00;;;1.80;99.90;;;;;;6221036;23;20163;-83
2023/01/19 08:04:50;;;;;;;81.70;26.27;;;1.80;99.90;;;;;;6220714;23;20137;-83
2023/01/19 08:07:16;;;;;;;82.83;27.43;;;1.80;99.90;;;;;;6220742;23;20125;-83
2023/01/19 08:09:43;;;;;;;80.80;24.50;;;1.80;99.90;;;;;;6219938;23;20172;-83
2023/01/19 08:12:10;;;;;;;81.40;24.30;;;1.80;99.90;;;;;;6219578;23;20379;-83
2023/01/19 08:14:35;;;;;;;80.33;24.30;;;1.90;99.90;;;;;;6194137;23;20597;-84
2023/01/19 08:17:02;;;;;;;85.63;22.87;;;1.80;99.90;;;;;;6220833;23;20848;-83
2023/01/19 08:19:28;;;;;;;76.05;21.42;;;1.90;99.90;;;;;;6220897;23;20137;-84
2023/01/19 08:21:55;;;;;;;82.10;22.88;;;1.90;99.90;;;;;;6199586;23;20169;-83
2023/01/19 08:24:24;;;;;;;87.03;24.27;;;1.90;99.90;;;;;;6220849;23;20514;-83
2023/01/19 08:26:50;;;;;;;82.10;21.13;;;2.00;99.90;;;;;;6194156;23;20530;-84
2023/01/19 08:29:15;;;;;;;74.20;17.80;;;2.00;99.90;;;;;;6220697;23;20183;-84
2023/01/19 08:31:42;;;;;;;78.93;20.93;;;2.10;99.90;;;;;;6194200;23;20184;-83
2023/01/19 08:34:07;;;;;;;77.70;19.38;;;2.10;99.90;;;;;;6194064;23;20224;-84
2023/01/19 08:36:34;;;;;;;80.07;19.43;;;2.10;99.90;;;;;;6193781;23;20148;-84
2023/01/19 08:39:00;;;;;;;84.90;25.42;;;2.10;99.90;;;;;;6220143;23;20744;-84
2023/01/19 08:41:26;;;;;;;81.20;25.37;;;2.20;99.90;;;;;;6220762;23;20160;-83
2023/01/19 08:43:52;;;;;;;78.27;21.00;;;2.20;99.90;;;;;;6193949;23;20379;-83
2023/01/19 08:46:20;;;;;;;93.30;55.50;;;2.20;99.90;;;;;;6194400;23;20382;-83
2023/01/19 08:48:49;;;;;;;82.32;22.05;;;2.20;99.90;;;;;;6220061;23;20195;-84
2023/01/19 08:51:16;;;;;;;82.70;20.77;;;2.20;99.90;;;;;;6220516;23;20176;-84
2023/01/19 08:53:42;;;;;;;80.22;20.85;;;2.10;99.90;;;;;;6220504;23;20633;-84
2023/01/19 08:56:13;;;;;;;78.78;20.00;;;2.20;99.90;;;;;;6193528;23;20590;-84
2023/01/19 08:58:43;;;;;;;84.85;22.83;;;2.20;99.90;;;;;;6220867;23;20155;-84
2023/01/19 09:01:10;;;;;;;79.40;20.15;;;2.20;99.90;;;;;;6193809;23;20696;-84
2023/01/19 09:03:36;;;;;;;80.13;23.15;;;2.30;99.90;;;;;;6194569;23;20144;-83
2023/01/19 09:06:05;;;;;;;81.50;21.00;;;2.30;99.90;;;;;;6194053;23;20176;-84
2023/01/19 09:08:34;;;;;;;91.38;38.53;;;2.40;99.90;;;;;;6222506;23;20141;-84
2023/01/19 09:11:00;;;;;;;81.47;21.55;;;2.40;99.90;;;;;;6222319;23;20561;-83
2023/01/19 09:13:26;;;;;;;78.97;19.30;;;2.40;99.90;;;;;;6223694;23;20137;-84
2023/01/19 09:15:52;;;;;;;80.03;21.03;;;2.40;99.90;;;;;;6222238;23;20442;-83
2023/01/19 09:18:20;;;;;;;78.07;21.00;;;2.40;99.90;;;;;;6222605;23;20136;-84
2023/01/19 09:20:48;;;;;;;82.43;25.35;;;2.40;99.90;;;;;;6195153;23;20732;-84
2023/01/19 09:23:16;;;;;;;80.38;23.10;;;2.40;99.90;;;;;;6195230;23;20149;-84
2023/01/19 09:25:43;;;;;;;81.28;21.58;;;2.40;99.90;;;;;;6222468;23;20219;-84
2023/01/19 09:28:11;;;;;;;77.20;18.83;;;2.40;99.90;;;;;;6195672;23;20148;-84
2023/01/19 09:30:39;;;;;;;86.22;34.75;;;2.40;99.90;;;;;;6221083;23;20182;-83
2023/01/19 09:33:14;;;;;;;81.82;22.40;;;2.50;99.90;;;;;;6222389;23;20466;-84
2023/01/19 09:35:41;;;;;;;80.28;20.83;;;2.50;99.90;;;;;;6221667;23;20610;-81
2023/01/19 09:38:08;;;;;;;84.80;21.42;;;2.50;99.90;;;;;;6222207;23;20160;-84
2023/01/19 09:40:46;;;;;;;90.18;21.45;;;2.60;99.90;;;;;;6194760;23;20223;-84
2023/01/19 09:43:31;;;;;;;85.47;20.20;;;2.60;99.90;;;;;;6195530;23;20194;-85
2023/01/19 09:46:01;;;;;;;81.55;22.20;;;2.70;99.90;;;;;;6221985;23;20128;-84
2023/01/19 09:49:03;;;;;;;87.32;20.65;;;2.70;99.90;;;;;;6194983;23;20143;-85
2023/01/19 09:51:36;;;;;;;82.28;22.05;;;2.70;99.90;;;;;;6220793;23;20195;-84
2023/01/19 09:54:16;;;;;;;82.05;19.83;;;2.70;99.90;;;;;;6222623;23;20152;-84
2023/01/19 09:56:46;;;;;;;83.85;21.77;;;2.70;99.90;;;;;;6221937;23;20132;-84
2023/01/19 09:59:24;;;;;;;93.03;25.92;;;2.80;99.90;;;;;;6221847;23;20136;-84
2023/01/19 10:02:23;;;;;;;88.28;20.70;;;2.80;99.90;;;;;;6222015;23;20187;-85
2023/01/19 10:05:02;;;;;;;93.50;24.73;;;2.90;99.90;;;;;;6221379;23;20604;-84
2023/01/19 10:07:38;;;;;;;87.88;22.15;;;2.80;99.90;;;;;;6221570;23;20133;-85
2023/01/19 10:10:15;;;;;;;89.90;24.42;;;2.80;99.90;;;;;;6221107;23;20255;-84
2023/01/19 10:12:43;;;;;;;86.30;23.75;;;2.70;99.90;;;;;;6193573;23;20270;-85
2023/01/19 10:15:24;;;;;;;92.45;22.50;;;2.70;99.90;;;;;;6194579;23;20528;-85
2023/01/19 10:18:12;;;;;;;96.38;24.73;;;2.60;99.90;;;;;;6194140;23;20143;-84
2023/01/19 10:20:50;;;;;;;87.53;23.65;;;2.60;99.90;;;;;;6220657;23;20242;-84
2023/01/19 10:23:33;;;;;;;90.85;22.17;;;2.60;99.90;;;;;;6220699;23;20129;-84
2023/01/19 10:26:04;;;;;;;91.38;21.63;;;2.60;99.90;;;;;;6220741;23;20203;-84
2023/01/19 10:28:30;;;;;;;91.97;22.05;;;2.70;99.90;;;;;;6221165;23;20572;-85
2023/01/19 10:30:56;;;;;;;90.78;22.90;;;2.70;99.90;;;;;;6220732;23;20172;-85
2023/01/19 10:33:22;;;;;;;89.17;22.67;;;2.80;99.90;;;;;;6195025;23;20155;-85
2023/01/19 10:35:48;;;;;;;87.97;22.10;;;2.80;99.90;;;;;;6194060;23;20148;-85
2023/01/19 10:38:20;;;;;;;83.23;21.07;;;2.80;99.90;;;;;;6195267;23;20383;-85
2023/01/19 10:41:03;;;;;;;83.88;21.17;;;2.90;99.90;;;;;;6194607;23;20396;-85
2023/01/19 10:43:38;;;;;;;92.30;19.50;;;2.90;99.90;;;;;;6196345;23;20141;-85
2023/01/19 10:46:06;;;;;;;88.40;23.67;;;3.00;99.90;;;;;;6195310;23;20231;-85
2023/01/19 10:48:42;;;;;;;93.43;24.60;;;3.10;99.90;;;;;;6222009;23;20147;-85
2023/01/19 10:51:09;;;;;;;90.03;22.45;;;3.10;99.90;;;;;;6220620;23;20175;-85
2023/01/19 10:53:36;;;;;;;89.68;21.77;;;3.20;99.90;;;;;;6220542;23;20557;-85
2023/01/19 10:56:20;;;;;;;91.13;21.48;;;3.20;99.90;;;;;;6220883;23;20187;-87
2023/01/19 10:58:46;;;;;;;108.15;72.72;;;3.30;99.90;;;;;;6221231;23;20125;-85
2023/01/19 11:01:20;;;;;;;93.83;22.50;;;3.30;99.90;;;;;;6220662;23;20207;-85
2023/01/19 11:04:02;;;;;;;94.05;21.77;;;3.30;99.90;;;;;;6221386;23;20129;-86
2023/01/19 11:06:40;;;;;;;96.40;20.13;;;3.30;99.90;;;;;;6194067;23;20148;-86
2023/01/19 11:09:22;;;;;;;86.80;19.58;;;3.40;99.90;;;;;;6220356;23;20152;-85
2023/01/19 11:11:50;;;;;;;86.72;19.52;;;3.40;99.90;;;;;;6218927;23;20195;-86
2023/01/19 11:17:36;;;;;;;85.53;20.00;;;3.40;99.90;;;;;;6220725;23;20171;-81
2023/01/19 11:20:20;;;;;;;87.47;20.17;;;3.40;99.90;;;;;;6220955;23;20195;-82
2023/01/19 11:23:14;;;;;;;86.65;21.40;;;3.50;99.90;;;;;;6195727;23;20148;-82
2023/01/19 11:25:51;;;;;;;88.40;23.58;;;3.60;99.90;;;;;;6152564;23;20564;-82
2023/01/19 11:28:27;;;;;;;88.65;19.60;;;3.70;99.90;;;;;;6221641;23;20566;-82
2023/01/19 11:30:58;;;;;;;88.97;18.20;;;3.80;99.90;;;;;;6222474;23;20270;-82
2023/01/19 11:33:36;;;;;;;81.75;18.42;;;3.90;99.90;;;;;;6221820;23;20605;-82
2023/01/19 11:36:04;;;;;;;88.53;18.88;;;4.00;99.90;;;;;;6195491;23;20164;-83
2023/01/19 11:38:31;;;;;;;85.65;25.65;;;4.00;99.90;;;;;;6223253;23;20137;-83
2023/01/19 11:40:58;;;;;;;83.03;17.38;;;3.90;99.90;;;;;;6224015;23;20160;-83
2023/01/19 11:43:28;;;;;;;89.40;19.10;;;3.90;99.90;;;;;;6198153;23;20152;-83
2023/01/19 11:45:55;;;;;;;85.78;20.05;;;3.90;99.90;;;;;;6226231;23;20141;-84
2023/01/19 11:48:31;;;;;;;84.70;16.60;;;3.90;99.90;;;;;;6226237;23;20465;-83
2023/01/19 11:51:00;;;;;;;87.63;17.88;;;4.00;99.90;;;;;;6200724;23;20180;-83
2023/01/19 11:53:32;;;;;;;87.95;15.80;;;4.00;99.90;;;;;;6202591;23;20194;-84
2023/01/19 11:56:25;;;;;;;88.15;19.83;;;4.00;99.90;;;;;;6227360;23;20128;-84
2023/01/19 11:58:51;;;;;;;83.70;16.27;;;4.10;99.90;;;;;;6221411;23;20175;-83
2023/01/19 12:01:32;;;;;;;103.00;17.20;;;4.20;99.90;;;;;;6223706;23;20160;-83
2023/01/19 12:04:07;;;;;;;78.88;16.00;;;4.30;99.90;;;;;;6224684;23;20374;-83
2023/01/19 12:06:46;;;;;;;80.90;16.35;;;4.30;99.90;;;;;;6199202;23;20144;-83
2023/01/19 12:09:33;;;;;;;90.50;16.80;;;4.30;99.90;;;;;;6197328;23;20145;-83
2023/01/19 12:12:07;;;;;;;89.22;17.15;;;4.40;99.90;;;;;;6223273;23;20171;-82
2023/01/19 12:14:38;;;;;;;78.95;13.70;;;4.30;99.90;;;;;;6222799;23;20571;-83
2023/01/19 12:17:12;;;;;;;85.90;14.18;;;4.30;99.90;;;;;;6224383;23;20132;-83
2023/01/19 12:19:58;;;;;;;83.35;14.63;;;4.30;99.90;;;;;;6223713;23;20171;-83
2023/01/19 12:22:29;;;;;;;83.68;16.30;;;4.30;99.90;;;;;;6224847;23;20125;-83
2023/01/19 12:25:13;;;;;;;89.10;16.77;;;4.30;99.90;;;;;;6224210;23;20501;-83
2023/01/19 12:27:44;;;;;;;81.50;16.85;;;4.30;99.90;;;;;;6198346;23;20141;-82
2023/01/19 12:34:22;;;;;;;86.15;18.05;;;4.20;99.90;;;;;;6181477;23;20175;-82
2023/01/19 12:37:41;;;;;;;91.97;18.23;;;4.20;99.90;;;;;;6194420;23;20145;-83
2023/01/19 12:40:40;;;;;;;81.63;16.58;;;4.20;99.90;;;;;;6193633;23;20277;-83
2023/01/19 12:43:46;;;;;;;82.05;15.35;;;4.20;99.90;;;;;;6199532;23;20235;-83
2023/01/19 12:46:56;;;;;;;;;;;;;;;;;;;;;
2023/01/19 12:50:28;;;;;;;81.32;17.95;;;4.40;99.90;;;;;;6226061;23;20152;-82
2023/01/19 12:54:26;;;;;;;80.22;18.85;;;4.40;99.90;;;;;;6104886;23;20315;-83
2023/01/19 13:01:01;;;;;;;;;;;;;;;;;;;;;
2023/01/19 13:07:47;;;;;;;86.35;23.30;;;4.50;99.90;;;;;;6104714;23;20203;-83
2023/01/19 13:11:05;;;;;;;82.60;23.52;;;4.60;99.90;;;;;;6067542;23;20190;-83
2023/01/19 13:13:45;;;;;;;86.25;22.52;;;4.70;99.90;;;;;;6102964;23;20128;-82
2023/01/19 13:20:22;;;;;;;86.07;26.52;;;4.90;99.90;;;;;;6162379;23;20229;-82
2023/01/19 13:26:01;;;;;;;85.25;21.00;;;4.80;99.90;;;;;;6227607;23;20136;-83
2023/01/19 13:29:12;;;;;;;86.90;25.67;;;4.90;99.90;;;;;;6204142;23;20501;-83
2023/01/19 13:32:28;;;;;;;81.30;18.92;;;5.10;99.90;;;;;;6105304;23;20197;-84
2023/01/19 13:38:11;;;;;;;85.50;12.93;;;5.10;99.90;;;;;;6210439;23;20145;-82
2023/01/19 13:40:44;;;;;;;83.60;13.10;;;4.90;99.90;;;;;;6224736;23;20236;-83
2023/01/19 13:43:48;;;;;;;84.00;12.55;;;4.90;99.90;;;;;;6226288;23;20141;-83
2023/01/19 13:46:42;;;;;;;;;;;;;;;;;;;;;
2023/01/19 13:52:29;;;;;;;80.45;12.40;;;4.80;99.90;;;;;;6220041;22;20192;-83
2023/01/19 13:55:15;;;;;;;79.13;13.65;;;4.80;99.90;;;;;;6226656;23;20129;-83
2023/01/19 13:58:42;;;;;;;90.63;14.70;;;4.70;99.90;;;;;;6227312;23;20178;-83
2023/01/19 14:01:56;;;;;;;81.05;12.90;;;4.60;99.90;;;;;;6163988;23;20170;-83
2023/01/19 14:04:57;;;;;;;76.95;11.57;;;4.60;99.90;;;;;;6135073;23;20150;-83
2023/01/19 14:07:43;;;;;;;78.57;11.18;;;4.50;99.90;;;;;;6133833;23;20241;-83
2023/01/19 14:10:15;;;;;;;81.53;11.30;;;4.50;99.90;;;;;;6141803;23;20586;-83
2023/01/19 14:13:07;;;;;;;80.85;12.60;;;4.40;99.90;;;;;;6165713;23;20126;-83
2023/01/19 14:15:48;;;;;;;81.10;13.05;;;4.40;99.90;;;;;;6159104;23;20152;-83
2023/01/19 14:18:16;;;;;;;79.10;14.82;;;4.40;99.90;;;;;;6199854;23;20232;-83
2023/01/19 14:21:53;;;;;;;;;;;;;;;;;;;;;
2023/01/19 14:28:47;;;;;;;84.82;12.88;;;4.30;99.90;;;;;;6137583;23;20169;-83
2023/01/19 14:31:37;;;;;;;76.00;13.07;;;4.30;99.90;;;;;;6076607;23;20199;-83
2023/01/19 14:34:40;;;;;;;77.80;12.10;;;4.30;99.90;;;;;;6078665;23;20215;-83
2023/01/19 14:37:53;;;;;;;76.30;12.00;;;4.30;99.90;;;;;;6079605;23;20529;-82
2023/01/19 14:40:56;;;;;;;79.93;12.13;;;4.30;99.90;;;;;;6053071;23;20171;-83
2023/01/19 14:43:27;;;;;;;78.00;10.65;;;4.20;99.90;;;;;;6050080;23;20151;-83
2023/01/19 14:47:01;;;;;;;;;;;;;;;;;;;;;
2023/01/19 14:52:49;;;;;;;77.22;11.80;;;4.30;99.90;;;;;;6227326;22;20195;-83
2023/01/19 14:59:34;;;;;;;76.70;11.13;;;4.30;99.90;;;;;;6067880;23;20152;-82
2023/01/19 15:02:44;;;;;;;77.95;11.75;;;4.30;99.90;;;;;;6212401;22;20204;-83
2023/01/19 15:05:27;;;;;;;75.28;12.55;;;4.40;99.90;;;;;;6225808;23;20227;-83
2023/01/19 15:08:16;;;;;;;151.30;137.68;;;4.30;99.90;;;;;;6226443;23;20478;-83
2023/01/19 15:11:24;;;;;;;75.68;11.77;;;4.40;99.90;;;;;;6199937;23;20180;-83
2023/01/19 15:14:29;;;;;;;79.35;10.63;;;4.30;99.90;;;;;;6199063;23;20172;-83
2023/01/19 15:17:25;;;;;;;71.32;8.98;;;4.30;99.90;;;;;;6216766;23;20144;-83
2023/01/19 15:20:29;;;;;;;78.63;13.15;;;4.30;99.90;;;;;;6226236;23;20147;-83
2023/01/19 15:23:09;;;;;;;73.75;10.82;;;4.30;99.90;;;;;;6226701;23;20171;-83
2023/01/19 15:26:00;;;;;;;80.43;9.75;;;4.20;99.90;;;;;;6223757;23;20148;-84
2023/01/19 15:29:10;;;;;;;72.30;11.05;;;4.20;99.90;;;;;;6228376;23;20156;-83
2023/01/19 15:32:07;;;;;;;73.65;9.30;;;4.20;99.90;;;;;;6198978;23;20195;-83
2023/01/19 15:35:11;;;;;;;74.95;9.52;;;4.20;99.90;;;;;;6226940;23;20148;-83
2023/01/19 15:38:16;;;;;;;76.22;12.45;;;4.10;99.90;;;;;;6214688;23;20157;-84
2023/01/19 15:40:56;;;;;;;78.43;10.10;;;4.20;99.90;;;;;;6201555;23;20198;-83
2023/01/19 15:43:31;;;;;;;73.80;9.43;;;4.10;99.90;;;;;;6202750;23;20141;-83
2023/01/19 15:46:52;;;;;;;77.35;11.18;;;4.10;99.90;;;;;;6228890;23;20132;-83
2023/01/19 15:49:29;;;;;;;76.38;10.27;;;4.00;99.90;;;;;;6231300;23;20249;-84
2023/01/19 15:51:58;;;;;;;84.65;9.93;;;4.00;99.90;;;;;;6229446;23;20168;-83
2023/01/19 15:55:20;;;;;;;85.90;13.68;;;4.00;99.90;;;;;;6228367;23;20132;-83
2023/01/19 15:58:22;;;;;;;75.88;11.90;;;3.90;99.90;;;;;;6225599;23;20151;-83
2023/01/19 16:01:29;;;;;;;77.82;11.95;;;4.00;99.90;;;;;;6164117;23;20183;-83
2023/01/19 16:04:10;;;;;;;79.18;12.82;;;3.90;99.90;;;;;;6227699;23;20149;-84
2023/01/19 16:06:52;;;;;;;76.80;11.40;;;3.90;99.90;;;;;;6227038;23;20168;-83
2023/01/19 16:10:10;;;;;;;74.38;11.05;;;3.90;99.90;;;;;;6198806;23;20155;-83
2023/01/19 16:12:52;;;;;;;96.35;17.33;;;3.80;99.90;;;;;;6192934;23;20255;-83
2023/01/19 16:15:49;;;;;;;;;;;;;;;;;;;;;
2023/01/19 16:18:35;;;;;;;74.00;12.00;;;3.50;99.90;;;;;;6227316;23;20171;-84
2023/01/19 16:21:04;;;;;;;74.30;9.85;;;3.40;99.90;;;;;;6226958;23;20216;-84
2023/01/19 16:26:45;;;;;;;71.97;9.25;;;3.50;99.90;;;;;;6192860;23;20198;-83
2023/01/19 16:29:38;;;;;;;71.25;9.57;;;3.50;99.90;;;;;;6202088;23;20225;-83
2023/01/19 16:32:10;;;;;;;73.68;8.77;;;3.60;99.90;;;;;;6228749;23;20190;-83
2023/01/19 16:34:55;;;;;;;72.15;9.32;;;3.70;99.90;;;;;;6198144;23;20183;-83
2023/01/19 16:37:44;;;;;;;77.70;9.93;;;3.70;99.90;;;;;;6228301;23;20127;-84
2023/01/19 16:40:34;;;;;;;69.40;9.35;;;3.60;99.90;;;;;;6229095;23;20160;-84
2023/01/19 16:43:39;;;;;;;69.30;8.38;;;3.60;99.90;;;;;;6228038;23;20129;-84
2023/01/19 16:46:26;;;;;;;70.50;8.48;;;3.50;99.90;;;;;;6227813;23;20131;-84
2023/01/19 16:49:33;;;;;;;69.93;8.80;;;3.50;99.90;;;;;;6199382;23;20149;-84
2023/01/19 16:52:27;;;;;;;73.55;9.15;;;3.50;99.90;;;;;;6081107;23;20183;-84
2023/01/19 16:55:21;;;;;;;71.43;8.23;;;3.50;99.90;;;;;;6092068;23;20145;-83
2023/01/19 16:58:03;;;;;;;70.00;8.82;;;3.60;99.90;;;;;;6166358;23;20149;-83
2023/01/19 17:00:29;;;;;;;72.15;9.38;;;3.50;99.90;;;;;;6225738;23;20160;-83
2023/01/19 17:03:06;;;;;;;71.10;9.07;;;3.50;99.90;;;;;;6225847;23;20164;-83
2023/01/19 17:06:11;;;;;;;82.35;11.75;;;3.60;99.90;;;;;;6198598;23;20172;-83
2023/01/19 17:08:51;;;;;;;69.05;8.48;;;3.50;99.90;;;;;;6224836;23;20156;-84
2023/01/19 17:11:33;;;;;;;71.90;8.85;;;3.50;99.90;;;;;;6225976;23;20204;-84
2023/01/19 17:20:02;;;;;;;79.13;11.35;;;3.50;99.90;;;;;;6192703;23;20513;-85
2023/01/19 17:22:54;;;;;;;72.72;10.32;;;3.50;99.90;;;;;;6136928;23;20138;-86
2023/01/19 17:25:39;;;;;;;73.15;9.23;;;3.50;99.90;;;;;;6162246;23;20148;-86
2023/01/19 17:28:20;;;;;;;72.32;9.73;;;3.40;99.90;;;;;;6137763;23;20155;-86
2023/01/19 17:31:09;;;;;;;71.80;10.82;;;3.40;99.90;;;;;;6163566;23;20643;-85
2023/01/19 17:36:41;;;;;;;70.47;9.70;;;3.40;99.90;;;;;;6130408;23;20173;-86
2023/01/19 17:39:13;;;;;;;75.40;11.00;;;3.30;99.90;;;;;;6138466;23;20214;-86
2023/01/19 17:41:39;;;;;;;75.63;10.43;;;3.30;99.90;;;;;;6138334;23;20914;-87
2023/01/19 17:44:06;;;;;;;71.55;9.57;;;3.30;99.90;;;;;;6138247;23;20228;-85
2023/01/19 17:46:35;;;;;;;73.28;10.82;;;3.30;99.90;;;;;;6136684;23;20556;-84
2023/01/19 17:49:04;;;;;;;79.85;10.93;;;3.30;99.90;;;;;;6163099;23;20142;-85
2023/01/19 17:51:30;;;;;;;75.07;10.73;;;3.30;99.90;;;;;;6163353;23;20630;-83